Back to Top

Language: 

My Weather Underground Personal Weather Station Historical Data with Graphs...

Delerius Weather Station Historical Data
Daily Summary for June 19, 2017 Units:  English    Metric   Both
« Previous Day
Next Day »
Daily Weekly Monthly Yearly Custom
  High: Low: Average:
Temperature: 89.1 °F 58.5 °F 75.2 °F
Dew Point: 64.0 °F 55.5 °F 59.8 °F
Humidity: 91 % 35 % 62 %
Wind Speed: 9.0 mph 0.0 mph 2.7 mph
Wind Gust: 15.0 mph - -
Wind:- - WNW
Pressure: 30.16 in 30.03 in -
Precipitation: 0.00 in    
Historical Graphs
 
 
Tabular Data for June 19, 2017
Time Temperature Dew Point Pressure Wind Wind Speed Wind Gust Humidity Rainfall Rate (Hourly) solar Conditions
00:04 66.0 °F 59.7 °F 30.16 in Calm     80 % 0.00 in 0 W/m2
00:09 65.8 °F 59.8 °F 30.16 in Calm     81 % 0.00 in 0 W/m2
00:14 65.7 °F 59.7 °F 30.16 in Calm     81 % 0.00 in 0 W/m2
00:19 65.5 °F 59.5 °F 30.16 in Calm     81 % 0.00 in 0 W/m2
00:24 65.1 °F 59.5 °F 30.16 in Calm     82 % 0.00 in 0 W/m2
00:29 64.9 °F 59.3 °F 30.16 in Calm     82 % 0.00 in 0 W/m2
00:34 64.8 °F 59.1 °F 30.16 in Calm   1.0 mph 82 % 0.00 in 0 W/m2
00:39 64.6 °F 59.3 °F 30.16 in Calm   2.0 mph 83 % 0.00 in 0 W/m2
00:44 64.4 °F 59.1 °F 30.16 in Calm   2.0 mph 83 % 0.00 in 0 W/m2
00:50 64.2 °F 58.9 °F 30.15 in Calm     83 % 0.00 in 0 W/m2
00:55 64.0 °F 58.8 °F 30.16 in Calm     83 % 0.00 in 0 W/m2
01:00 63.9 °F 58.9 °F 30.15 in Calm     84 % 0.00 in 0 W/m2
01:05 63.7 °F 58.8 °F 30.15 in Calm     84 % 0.00 in 0 W/m2
01:10 63.5 °F 58.6 °F 30.15 in Calm     84 % 0.00 in 0 W/m2
01:15 63.3 °F 58.7 °F 30.15 in Calm     85 % 0.00 in 0 W/m2
01:20 63.1 °F 58.6 °F 30.15 in Calm     85 % 0.00 in 0 W/m2
01:25 63.0 °F 58.4 °F 30.15 in Calm     85 % 0.00 in 0 W/m2
01:30 63.0 °F 58.4 °F 30.15 in Calm     85 % 0.00 in 0 W/m2
01:35 62.8 °F 58.5 °F 30.15 in Calm     86 % 0.00 in 0 W/m2
01:40 62.8 °F 58.5 °F 30.15 in Calm     86 % 0.00 in 0 W/m2
01:45 62.6 °F 58.4 °F 30.15 in Calm     86 % 0.00 in 0 W/m2
01:50 62.4 °F 58.2 °F 30.15 in Calm     86 % 0.00 in 0 W/m2
01:55 62.6 °F 58.4 °F 30.14 in Calm   1.0 mph 86 % 0.00 in 0 W/m2
02:00 62.8 °F 58.5 °F 30.14 in Calm   1.0 mph 86 % 0.00 in 0 W/m2
02:05 62.6 °F 58.4 °F 30.14 in Calm     86 % 0.00 in 0 W/m2
02:10 62.4 °F 57.8 °F 30.14 in Calm     85 % 0.00 in 0 W/m2
02:15 62.2 °F 58.0 °F 30.14 in Calm     86 % 0.00 in 0 W/m2
02:20 62.1 °F 57.8 °F 30.14 in Calm     86 % 0.00 in 0 W/m2
02:25 61.9 °F 57.6 °F 30.14 in Calm     86 % 0.00 in 0 W/m2
02:30 61.9 °F 57.6 °F 30.14 in Calm     86 % 0.00 in 0 W/m2
02:35 61.5 °F 57.3 °F 30.14 in Calm     86 % 0.00 in 0 W/m2
02:40 61.5 °F 57.6 °F 30.14 in Calm     87 % 0.00 in 0 W/m2
02:45 61.3 °F 57.4 °F 30.14 in Calm     87 % 0.00 in 0 W/m2
02:50 61.3 °F 57.4 °F 30.14 in Calm     87 % 0.00 in 0 W/m2
02:55 61.2 °F 57.3 °F 30.14 in Calm     87 % 0.00 in 0 W/m2
03:00 61.2 °F 57.3 °F 30.14 in Calm     87 % 0.00 in 0 W/m2
03:01 61.2 °F 57.3 °F 30.14 in Calm     87 % 0.00 in 0 W/m2
03:06 61.0 °F 57.1 °F 30.13 in Calm     87 % 0.00 in 0 W/m2
03:09 61.0 °F 57.1 °F 30.13 in Calm     87 % 0.00 in 0 W/m2
03:14 61.0 °F 57.4 °F 30.13 in Calm     88 % 0.00 in 0 W/m2
03:19 61.0 °F 57.4 °F 30.14 in Calm   1.0 mph 88 % 0.00 in 0 W/m2
03:20 61.0 °F 57.4 °F 30.13 in Calm   1.0 mph 88 % 0.00 in 0 W/m2
03:24 61.0 °F 57.4 °F 30.13 in Calm   2.0 mph 88 % 0.00 in 0 W/m2
03:29 60.6 °F 57.0 °F 30.13 in Calm   2.0 mph 88 % 0.00 in 0 W/m2
03:35 60.6 °F 57.0 °F 30.13 in Calm   2.0 mph 88 % 0.00 in 0 W/m2
03:40 60.4 °F 56.9 °F 30.13 in Calm   2.0 mph 88 % 0.00 in 0 W/m2
03:45 60.4 °F 56.9 °F 30.13 in Calm     88 % 0.00 in 0 W/m2
03:50 60.4 °F 56.9 °F 30.12 in Calm     88 % 0.00 in 0 W/m2
03:55 60.3 °F 56.7 °F 30.12 in Calm   2.0 mph 88 % 0.00 in 0 W/m2
04:00 59.9 °F 56.3 °F 30.12 in Calm   2.0 mph 88 % 0.00 in 0 W/m2
04:05 59.7 °F 56.2 °F 30.12 in Calm     88 % 0.00 in 0 W/m2
04:10 59.5 °F 56.3 °F 30.12 in Calm     89 % 0.00 in 0 W/m2
04:15 59.4 °F 56.1 °F 30.12 in Calm     89 % 0.00 in 0 W/m2
04:20 59.4 °F 56.1 °F 30.12 in Calm     89 % 0.00 in 0 W/m2
04:25 59.2 °F 55.9 °F 30.12 in Calm     89 % 0.00 in 0 W/m2
04:30 59.0 °F 55.8 °F 30.12 in Calm     89 % 0.00 in 0 W/m2
04:35 58.8 °F 55.6 °F 30.12 in Calm     89 % 0.00 in 0 W/m2
04:40 58.8 °F 55.9 °F 30.12 in Calm     90 % 0.00 in 5 W/m2
04:45 58.6 °F 55.7 °F 30.12 in Calm     90 % 0.00 in 7 W/m2
04:49 58.6 °F 55.7 °F 30.12 in Calm     90 % 0.00 in 7 W/m2
04:54 58.5 °F 55.5 °F 30.12 in Calm     90 % 0.00 in 9 W/m2
04:59 58.5 °F 55.5 °F 30.12 in NW 1.0 mph 4.0 mph 90 % 0.00 in 11 W/m2
05:04 58.5 °F 55.5 °F 30.12 in NW 1.0 mph 4.0 mph 90 % 0.00 in 12 W/m2
05:09 58.5 °F 55.8 °F 30.12 in Calm   3.0 mph 91 % 0.00 in 14 W/m2
05:14 58.5 °F 55.8 °F 30.12 in Calm   1.0 mph 91 % 0.00 in 16 W/m2
05:19 58.5 °F 55.8 °F 30.12 in Calm     91 % 0.00 in 18 W/m2
05:24 58.5 °F 55.5 °F 30.12 in Calm     90 % 0.00 in 19 W/m2
05:29 58.5 °F 55.5 °F 30.12 in Calm     90 % 0.00 in 23 W/m2
05:34 58.5 °F 55.5 °F 30.12 in Calm     90 % 0.00 in 25 W/m2
05:39 58.6 °F 56.0 °F 30.12 in Calm   1.0 mph 91 % 0.00 in 26 W/m2
05:44 58.6 °F 56.0 °F 30.12 in Calm   1.0 mph 91 % 0.00 in 30 W/m2
05:49 58.8 °F 56.2 °F 30.12 in Calm   1.0 mph 91 % 0.00 in 33 W/m2
05:54 58.8 °F 56.2 °F 30.12 in Calm     91 % 0.00 in 49 W/m2
05:59 59.0 °F 56.4 °F 30.12 in Calm     91 % 0.00 in 95 W/m2
06:04 59.4 °F 56.7 °F 30.12 in Calm   1.0 mph 91 % 0.00 in 100 W/m2
06:09 59.7 °F 56.8 °F 30.12 in Calm   2.0 mph 90 % 0.00 in 79 W/m2
06:14 60.1 °F 57.1 °F 30.12 in Calm   2.0 mph 90 % 0.00 in 60 W/m2
06:19 60.3 °F 57.0 °F 30.12 in Calm   2.0 mph 89 % 0.00 in 47 W/m2
06:24 60.4 °F 57.2 °F 30.12 in Calm   1.0 mph 89 % 0.00 in 60 W/m2
06:29 61.0 °F 57.7 °F 30.12 in Calm     89 % 0.00 in 46 W/m2
06:34 61.2 °F 57.6 °F 30.12 in Calm     88 % 0.00 in 44 W/m2
06:39 61.5 °F 57.9 °F 30.12 in Calm     88 % 0.00 in 46 W/m2
06:44 61.9 °F 58.3 °F 30.12 in Calm   2.0 mph 88 % 0.00 in 47 W/m2
06:49 62.2 °F 58.6 °F 30.12 in NW 1.0 mph 2.0 mph 88 % 0.00 in 47 W/m2
06:54 62.8 °F 59.2 °F 30.12 in Calm   2.0 mph 88 % 0.00 in 49 W/m2
06:59 63.1 °F 59.5 °F 30.12 in Calm   2.0 mph 88 % 0.00 in 51 W/m2
07:04 63.7 °F 59.7 °F 30.12 in Calm   2.0 mph 87 % 0.00 in 54 W/m2
07:09 64.0 °F 59.8 °F 30.12 in Calm   2.0 mph 86 % 0.00 in 65 W/m2
07:14 64.6 °F 60.0 °F 30.12 in Calm     85 % 0.00 in 220 W/m2
07:19 64.9 °F 60.0 °F 30.12 in Calm     84 % 0.00 in 269 W/m2
07:24 65.7 °F 60.4 °F 30.12 in Calm     83 % 0.00 in 288 W/m2
07:29 66.6 °F 60.9 °F 30.12 in Calm     82 % 0.00 in 301 W/m2
07:34 67.6 °F 60.9 °F 30.12 in Calm     79 % 0.00 in 318 W/m2
07:39 68.7 °F 61.2 °F 30.11 in Calm     77 % 0.00 in 327 W/m2
07:44 69.6 °F 61.3 °F 30.12 in Calm     75 % 0.00 in 346 W/m2
07:49 70.5 °F 61.4 °F 30.11 in Calm   1.0 mph 73 % 0.00 in 359 W/m2
07:54 71.2 °F 61.7 °F 30.11 in Calm   1.0 mph 72 % 0.00 in 376 W/m2
08:00 72.0 °F 61.6 °F 30.11 in Calm   1.0 mph 70 % 0.00 in 388 W/m2
08:04 73.0 °F 61.9 °F 30.11 in Calm   1.0 mph 68 % 0.00 in 399 W/m2
08:10 74.5 °F 62.4 °F 30.11 in Calm     66 % 0.00 in 411 W/m2
08:15 75.4 °F 62.8 °F 30.11 in Calm     65 % 0.00 in 427 W/m2
08:20 76.3 °F 62.8 °F 30.11 in Calm   4.0 mph 63 % 0.00 in 439 W/m2
08:25 77.2 °F 62.2 °F 30.11 in NW 1.0 mph 4.0 mph 60 % 0.00 in 457 W/m2
08:30 76.8 °F 60.9 °F 30.11 in NW 2.0 mph 4.0 mph 58 % 0.00 in 471 W/m2
08:35 77.2 °F 61.7 °F 30.11 in NW 1.0 mph 4.0 mph 59 % 0.00 in 482 W/m2
08:40 77.5 °F 59.6 °F 30.11 in WNW 1.0 mph 4.0 mph 54 % 0.00 in 490 W/m2
08:45 77.9 °F 59.9 °F 30.11 in WNW 1.0 mph 4.0 mph 54 % 0.00 in 501 W/m2
08:50 78.1 °F 60.1 °F 30.11 in WNW 1.0 mph 4.0 mph 54 % 0.00 in 517 W/m2
08:55 78.6 °F 60.6 °F 30.10 in SSW 1.0 mph 4.0 mph 54 % 0.00 in 533 W/m2
08:56 78.6 °F 60.6 °F 30.10 in South 1.0 mph 4.0 mph 54 % 0.00 in 534 W/m2
09:01 79.2 °F 60.0 °F 30.10 in South 1.0 mph 5.0 mph 52 % 0.00 in 555 W/m2
09:06 79.2 °F 59.5 °F 30.10 in South 2.0 mph 5.0 mph 51 % 0.00 in 446 W/m2
09:12 79.2 °F 60.0 °F 30.10 in South 1.0 mph 4.0 mph 52 % 0.00 in 548 W/m2
09:17 79.2 °F 60.0 °F 30.10 in South 1.0 mph 5.0 mph 52 % 0.00 in 585 W/m2
09:18 79.0 °F 59.9 °F 30.10 in South 2.0 mph 5.0 mph 52 % 0.00 in 587 W/m2
09:23 79.0 °F 59.9 °F 30.10 in South 2.0 mph 5.0 mph 52 % 0.00 in 599 W/m2
09:28 79.3 °F 60.2 °F 30.10 in South 1.0 mph 4.0 mph 52 % 0.00 in 610 W/m2
09:33 80.1 °F 59.7 °F 30.10 in WSW 1.0 mph 4.0 mph 50 % 0.00 in 622 W/m2
09:39 80.8 °F 60.4 °F 30.10 in West 1.0 mph 4.0 mph 50 % 0.00 in 633 W/m2
09:44 81.9 °F 60.8 °F 30.10 in WNW 1.0 mph 4.0 mph 49 % 0.00 in 645 W/m2
09:49 82.6 °F 60.9 °F 30.10 in NW 1.0 mph 5.0 mph 48 % 0.00 in 656 W/m2
09:54 82.4 °F 60.7 °F 30.10 in West 2.0 mph 5.0 mph 48 % 0.00 in 664 W/m2
09:59 82.6 °F 60.9 °F 30.10 in West 1.0 mph 5.0 mph 48 % 0.00 in 675 W/m2
10:04 82.4 °F 61.3 °F 30.09 in West 1.0 mph 4.0 mph 49 % 0.00 in 686 W/m2
10:09 82.8 °F 61.6 °F 30.10 in West 1.0 mph 4.0 mph 49 % 0.00 in 698 W/m2
10:14 82.9 °F 61.8 °F 30.09 in WNW 1.0 mph 3.0 mph 49 % 0.00 in 712 W/m2
10:19 83.5 °F 62.9 °F 30.09 in SSW 1.0 mph 6.0 mph 50 % 0.00 in 719 W/m2
10:24 83.7 °F 62.5 °F 30.09 in WSW 2.0 mph 6.0 mph 49 % 0.00 in 735 W/m2
10:29 83.7 °F 62.5 °F 30.09 in West 3.0 mph 7.0 mph 49 % 0.00 in 728 W/m2
10:34 83.1 °F 62.6 °F 30.09 in West 3.0 mph 7.0 mph 50 % 0.00 in 761 W/m2
10:39 82.9 °F 62.4 °F 30.09 in West 2.0 mph 6.0 mph 50 % 0.00 in 737 W/m2
10:44 83.5 °F 62.9 °F 30.09 in West 1.0 mph 7.0 mph 50 % 0.00 in 780 W/m2
10:49 84.4 °F 63.1 °F 30.09 in West 1.0 mph 7.0 mph 49 % 0.00 in 749 W/m2
10:54 84.7 °F 63.5 °F 30.09 in WNW 3.0 mph 9.0 mph 49 % 0.00 in 821 W/m2
10:59 84.7 °F 63.5 °F 30.09 in WNW 4.0 mph 9.0 mph 49 % 0.00 in 703 W/m2
11:04 84.4 °F 63.7 °F 30.09 in NW 2.0 mph 7.0 mph 50 % 0.00 in 770 W/m2
11:09 83.8 °F 63.8 °F 30.09 in SW 2.0 mph 6.0 mph 51 % 0.00 in 707 W/m2
11:14 83.5 °F 64.0 °F 30.09 in South 3.0 mph 7.0 mph 52 % 0.00 in 729 W/m2
11:19 83.1 °F 63.1 °F 30.09 in South 4.0 mph 8.0 mph 51 % 0.00 in 687 W/m2
11:30 82.9 °F 63.5 °F 30.08 in SSW 2.0 mph 5.0 mph 52 % 0.00 in 777 W/m2
11:35 83.5 °F 64.0 °F 30.08 in SW 2.0 mph 6.0 mph 52 % 0.00 in 777 W/m2
11:40 83.8 °F 63.2 °F 30.08 in NW 2.0 mph 7.0 mph 50 % 0.00 in 846 W/m2
11:45 84.0 °F 62.8 °F 30.08 in WNW 3.0 mph 9.0 mph 49 % 0.00 in 837 W/m2
11:50 84.2 °F 62.4 °F 30.08 in WSW 4.0 mph 11.0 mph 48 % 0.00 in 816 W/m2
11:55 85.1 °F 62.0 °F 30.08 in WNW 6.0 mph 13.0 mph 46 % 0.00 in 788 W/m2
12:00 85.6 °F 59.9 °F 30.08 in West 8.0 mph 14.0 mph 42 % 0.00 in 905 W/m2
12:05 86.0 °F 61.5 °F 30.08 in West 8.0 mph 14.0 mph 44 % 0.00 in 937 W/m2
12:10 86.2 °F 61.7 °F 30.08 in WNW 7.0 mph 13.0 mph 44 % 0.00 in 891 W/m2
12:15 86.2 °F 62.3 °F 30.08 in WNW 5.0 mph 11.0 mph 45 % 0.00 in 698 W/m2
12:20 86.2 °F 60.4 °F 30.08 in West 6.0 mph 14.0 mph 42 % 0.00 in 735 W/m2
12:25 86.2 °F 60.4 °F 30.07 in West 7.0 mph 14.0 mph 42 % 0.00 in 693 W/m2
12:30 85.8 °F 61.4 °F 30.07 in WSW 5.0 mph 11.0 mph 44 % 0.00 in 791 W/m2
12:35 86.2 °F 61.7 °F 30.08 in West 5.0 mph 10.0 mph 44 % 0.00 in 357 W/m2
12:40 86.2 °F 61.1 °F 30.07 in West 6.0 mph 13.0 mph 43 % 0.00 in 751 W/m2
12:45 86.5 °F 60.7 °F 30.07 in West 6.0 mph 13.0 mph 42 % 0.00 in 761 W/m2
12:50 86.7 °F 60.9 °F 30.07 in WNW 5.0 mph 13.0 mph 42 % 0.00 in 861 W/m2
12:52 86.7 °F 60.9 °F 30.07 in WNW 6.0 mph 13.0 mph 42 % 0.00 in 784 W/m2
12:57 86.9 °F 61.0 °F 30.07 in WNW 7.0 mph 13.0 mph 42 % 0.00 in 747 W/m2
13:02 87.1 °F 61.2 °F 30.07 in West 6.0 mph 10.0 mph 42 % 0.00 in 847 W/m2
13:07 86.7 °F 61.5 °F 30.07 in West 6.0 mph 10.0 mph 43 % 0.00 in 949 W/m2
13:12 86.7 °F 60.9 °F 30.07 in WSW 7.0 mph 12.0 mph 42 % 0.00 in 886 W/m2
13:17 86.4 °F 61.2 °F 30.07 in WSW 8.0 mph 14.0 mph 43 % 0.00 in 909 W/m2
13:22 86.2 °F 60.4 °F 30.07 in WSW 8.0 mph 14.0 mph 42 % 0.00 in 953 W/m2
13:27 86.5 °F 60.7 °F 30.06 in West 7.0 mph 14.0 mph 42 % 0.00 in 888 W/m2
13:32 87.1 °F 60.5 °F 30.06 in WNW 7.0 mph 14.0 mph 41 % 0.00 in 633 W/m2
13:37 87.4 °F 60.8 °F 30.06 in WNW 7.0 mph 13.0 mph 41 % 0.00 in 768 W/m2
13:42 87.8 °F 61.2 °F 30.06 in WNW 7.0 mph 11.0 mph 41 % 0.00 in 812 W/m2
13:47 88.0 °F 60.6 °F 30.06 in WNW 7.0 mph 12.0 mph 40 % 0.00 in 803 W/m2
13:52 88.0 °F 61.3 °F 30.06 in WNW 7.0 mph 14.0 mph 41 % 0.00 in 800 W/m2
13:57 87.8 °F 61.2 °F 30.06 in West 7.0 mph 14.0 mph 41 % 0.00 in 798 W/m2
14:02 87.3 °F 61.4 °F 30.06 in West 7.0 mph 13.0 mph 42 % 0.00 in 953 W/m2
14:07 86.7 °F 60.2 °F 30.06 in West 8.0 mph 15.0 mph 41 % 0.00 in 919 W/m2
14:12 86.7 °F 60.2 °F 30.05 in West 8.0 mph 15.0 mph 41 % 0.00 in 925 W/m2
14:17 87.4 °F 60.8 °F 30.06 in WNW 9.0 mph 15.0 mph 41 % 0.00 in 225 W/m2
14:22 87.4 °F 60.2 °F 30.06 in WNW 9.0 mph 15.0 mph 40 % 0.00 in 930 W/m2
14:27 87.1 °F 60.5 °F 30.05 in West 6.0 mph 12.0 mph 41 % 0.00 in 881 W/m2
14:32 87.4 °F 60.2 °F 30.05 in West 7.0 mph 15.0 mph 40 % 0.00 in 833 W/m2
14:37 87.6 °F 59.6 °F 30.05 in WNW 9.0 mph 15.0 mph 39 % 0.00 in 893 W/m2
14:42 88.0 °F 59.2 °F 30.05 in WNW 9.0 mph 15.0 mph 38 % 0.00 in 821 W/m2
14:47 88.0 °F 58.4 °F 30.05 in West 8.0 mph 14.0 mph 37 % 0.00 in 870 W/m2
14:52 88.0 °F 58.4 °F 30.05 in West 8.0 mph 14.0 mph 37 % 0.00 in 858 W/m2
14:57 88.5 °F 58.9 °F 30.05 in WNW 8.0 mph 13.0 mph 37 % 0.00 in 867 W/m2
15:02 88.5 °F 58.9 °F 30.05 in WNW 7.0 mph 13.0 mph 37 % 0.00 in 868 W/m2
15:08 88.9 °F 58.5 °F 30.05 in WNW 6.0 mph 13.0 mph 36 % 0.00 in 800 W/m2
15:13 89.1 °F 57.8 °F 30.04 in West 7.0 mph 13.0 mph 35 % 0.00 in 628 W/m2
15:18 88.0 °F 57.7 °F 30.05 in WSW 7.0 mph 10.0 mph 36 % 0.00 in 601 W/m2
15:23 87.8 °F 59.0 °F 30.05 in West 8.0 mph 15.0 mph 38 % 0.00 in 844 W/m2
15:28 88.2 °F 59.4 °F 30.05 in WNW 8.0 mph 15.0 mph 38 % 0.00 in 396 W/m2
15:33 88.2 °F 59.4 °F 30.05 in WNW 7.0 mph 14.0 mph 38 % 0.00 in 791 W/m2
15:38 88.2 °F 58.6 °F 30.05 in WNW 7.0 mph 14.0 mph 37 % 0.00 in 650 W/m2
15:43 87.8 °F 59.8 °F 30.05 in WNW 7.0 mph 11.0 mph 39 % 0.00 in 731 W/m2
15:48 88.0 °F 59.9 °F 30.05 in WNW 7.0 mph 12.0 mph 39 % 0.00 in 559 W/m2
15:53 88.0 °F 59.2 °F 30.05 in WNW 7.0 mph 12.0 mph 38 % 0.00 in 691 W/m2
15:58 88.2 °F 58.6 °F 30.04 in NW 7.0 mph 12.0 mph 37 % 0.00 in 464 W/m2
16:03 88.0 °F 59.2 °F 30.04 in WNW 6.0 mph 12.0 mph 38 % 0.00 in 599 W/m2
16:08 87.6 °F 59.6 °F 30.04 in West 6.0 mph 11.0 mph 39 % 0.00 in 722 W/m2
16:13 88.2 °F 60.1 °F 30.04 in West 7.0 mph 12.0 mph 39 % 0.00 in 686 W/m2
16:18 88.0 °F 59.9 °F 30.04 in WNW 7.0 mph 12.0 mph 39 % 0.00 in 564 W/m2
16:23 88.0 °F 59.9 °F 30.04 in West 5.0 mph 10.0 mph 39 % 0.00 in 561 W/m2
16:28 88.0 °F 59.9 °F 30.04 in WNW 5.0 mph 11.0 mph 39 % 0.00 in 628 W/m2
16:33 88.2 °F 59.4 °F 30.04 in WNW 6.0 mph 12.0 mph 38 % 0.00 in 606 W/m2
16:38 88.3 °F 58.8 °F 30.03 in NW 6.0 mph 13.0 mph 37 % 0.00 in 612 W/m2
16:43 88.5 °F 59.7 °F 30.04 in WNW 5.0 mph 13.0 mph 38 % 0.00 in 577 W/m2
16:48 88.5 °F 60.4 °F 30.03 in WNW 5.0 mph 13.0 mph 39 % 0.00 in 485 W/m2
16:53 88.3 °F 60.2 °F 30.04 in WNW 6.0 mph 13.0 mph 39 % 0.00 in 452 W/m2
16:58 88.2 °F 59.4 °F 30.03 in NW 7.0 mph 12.0 mph 38 % 0.00 in 494 W/m2
17:03 87.8 °F 59.8 °F 30.04 in NW 7.0 mph 11.0 mph 39 % 0.00 in 308 W/m2
17:08 87.6 °F 60.3 °F 30.03 in WNW 6.0 mph 10.0 mph 40 % 0.00 in 415 W/m2
17:13 87.6 °F 59.6 °F 30.03 in WNW 6.0 mph 10.0 mph 39 % 0.00 in 510 W/m2
17:18 87.6 °F 60.3 °F 30.03 in WNW 6.0 mph 12.0 mph 40 % 0.00 in 394 W/m2
17:23 87.3 °F 60.7 °F 30.03 in WNW 7.0 mph 12.0 mph 41 % 0.00 in 276 W/m2
17:28 86.7 °F 60.2 °F 30.03 in NW 6.0 mph 12.0 mph 41 % 0.00 in 297 W/m2
17:33 86.4 °F 60.6 °F 30.03 in NW 5.0 mph 10.0 mph 42 % 0.00 in 374 W/m2
17:38 86.2 °F 60.4 °F 30.03 in NW 5.0 mph 10.0 mph 42 % 0.00 in 309 W/m2
17:43 86.4 °F 61.2 °F 30.03 in NW 5.0 mph 11.0 mph 43 % 0.00 in 346 W/m2
17:48 86.4 °F 60.6 °F 30.03 in WNW 6.0 mph 11.0 mph 42 % 0.00 in 304 W/m2
17:53 86.2 °F 61.1 °F 30.03 in WNW 6.0 mph 11.0 mph 43 % 0.00 in 265 W/m2
17:58 86.0 °F 60.9 °F 30.03 in WNW 7.0 mph 11.0 mph 43 % 0.00 in 366 W/m2
18:03 86.0 °F 61.5 °F 30.03 in NW 6.0 mph 11.0 mph 44 % 0.00 in 288 W/m2
18:08 85.6 °F 61.2 °F 30.03 in NW 6.0 mph 11.0 mph 44 % 0.00 in 225 W/m2
18:13 85.5 °F 61.1 °F 30.03 in NW 6.0 mph 9.0 mph 44 % 0.00 in 323 W/m2
18:18 85.5 °F 61.7 °F 30.03 in NW 6.0 mph 9.0 mph 45 % 0.00 in 364 W/m2
18:24 85.5 °F 61.7 °F 30.03 in NW 6.0 mph 9.0 mph 45 % 0.00 in 292 W/m2
18:29 85.5 °F 61.1 °F 30.03 in NW 6.0 mph 10.0 mph 44 % 0.00 in 207 W/m2
18:34 85.1 °F 61.4 °F 30.03 in NW 7.0 mph 10.0 mph 45 % 0.00 in 183 W/m2
18:39 84.6 °F 61.5 °F 30.03 in NW 7.0 mph 11.0 mph 46 % 0.00 in 200 W/m2
18:44 84.4 °F 61.3 °F 30.03 in NW 7.0 mph 11.0 mph 46 % 0.00 in 343 W/m2
18:49 84.4 °F 61.9 °F 30.03 in NW 7.0 mph 10.0 mph 47 % 0.00 in 202 W/m2
18:54 84.2 °F 61.8 °F 30.03 in NW 6.0 mph 11.0 mph 47 % 0.00 in 172 W/m2
18:59 84.0 °F 61.6 °F 30.03 in NW 6.0 mph 11.0 mph 47 % 0.00 in 234 W/m2
19:04 84.0 °F 62.2 °F 30.03 in NW 5.0 mph 9.0 mph 48 % 0.00 in 197 W/m2
19:09 84.0 °F 61.6 °F 30.04 in NW 6.0 mph 11.0 mph 47 % 0.00 in 185 W/m2
19:14 83.8 °F 61.5 °F 30.03 in NW 6.0 mph 11.0 mph 47 % 0.00 in 127 W/m2
19:19 83.5 °F 61.7 °F 30.04 in NW 6.0 mph 10.0 mph 48 % 0.00 in 98 W/m2
19:24 83.1 °F 62.0 °F 30.04 in NNW 6.0 mph 10.0 mph 49 % 0.00 in 93 W/m2
19:29 82.8 °F 62.2 °F 30.04 in NW 6.0 mph 10.0 mph 50 % 0.00 in 134 W/m2
19:34 82.2 °F 62.3 °F 30.04 in NW 6.0 mph 11.0 mph 51 % 0.00 in 120 W/m2
19:39 81.9 °F 62.0 °F 30.04 in NW 6.0 mph 11.0 mph 51 % 0.00 in 86 W/m2
19:45 81.5 °F 61.6 °F 30.04 in NW 6.0 mph 11.0 mph 51 % 0.00 in 86 W/m2
19:50 81.0 °F 61.7 °F 30.04 in NW 7.0 mph 13.0 mph 52 % 0.00 in 100 W/m2
19:55 80.6 °F 61.3 °F 30.04 in NW 7.0 mph 13.0 mph 52 % 0.00 in 86 W/m2
20:00 80.4 °F 61.7 °F 30.04 in NW 5.0 mph 10.0 mph 53 % 0.00 in 69 W/m2
20:05 80.2 °F 61.6 °F 30.04 in NW 5.0 mph 12.0 mph 53 % 0.00 in 56 W/m2
20:10 79.9 °F 61.7 °F 30.04 in NW 5.0 mph 12.0 mph 54 % 0.00 in 54 W/m2
20:15 79.5 °F 60.9 °F 30.04 in NW 5.0 mph 11.0 mph 53 % 0.00 in 56 W/m2
20:20 79.2 °F 60.6 °F 30.04 in NW 5.0 mph 11.0 mph 53 % 0.00 in 54 W/m2
20:25 78.8 °F 60.2 °F 30.04 in NW 5.0 mph 11.0 mph 53 % 0.00 in 47 W/m2
20:30 78.6 °F 60.1 °F 30.04 in NW 5.0 mph 9.0 mph 53 % 0.00 in 42 W/m2
20:35 78.3 °F 60.2 °F 30.04 in NW 5.0 mph 10.0 mph 54 % 0.00 in 33 W/m2
20:40 78.1 °F 60.1 °F 30.04 in NW 5.0 mph 10.0 mph 54 % 0.00 in 28 W/m2
20:45 77.7 °F 59.7 °F 30.05 in NW 4.0 mph 8.0 mph 54 % 0.00 in 23 W/m2
20:50 77.5 °F 60.1 °F 30.05 in NW 2.0 mph 6.0 mph 55 % 0.00 in 18 W/m2
20:55 77.4 °F 59.9 °F 30.05 in NW 2.0 mph 6.0 mph 55 % 0.00 in 16 W/m2
21:00 77.2 °F 59.8 °F 30.05 in NW 2.0 mph 6.0 mph 55 % 0.00 in 14 W/m2
21:05 77.0 °F 60.1 °F 30.05 in NW 1.0 mph 5.0 mph 56 % 0.00 in 12 W/m2
21:10 76.8 °F 59.9 °F 30.05 in NW 1.0 mph 3.0 mph 56 % 0.00 in 12 W/m2
21:15 76.6 °F 60.3 °F 30.05 in NW 1.0 mph 3.0 mph 57 % 0.00 in 12 W/m2
21:20 76.3 °F 59.9 °F 30.05 in NW 1.0 mph 5.0 mph 57 % 0.00 in 11 W/m2
21:25 76.1 °F 59.8 °F 30.05 in NW 1.0 mph 5.0 mph 57 % 0.00 in 7 W/m2
21:30 75.9 °F 60.1 °F 30.05 in Calm   2.0 mph 58 % 0.00 in 5 W/m2
21:35 75.7 °F 60.4 °F 30.05 in Calm   3.0 mph 59 % 0.00 in 0 W/m2
21:40 75.6 °F 60.7 °F 30.06 in Calm   3.0 mph 60 % 0.00 in 0 W/m2
21:45 75.2 °F 60.8 °F 30.06 in Calm   2.0 mph 61 % 0.00 in 0 W/m2
21:50 74.8 °F 60.9 °F 30.06 in Calm   1.0 mph 62 % 0.00 in 0 W/m2
21:55 74.7 °F 60.8 °F 30.06 in Calm   1.0 mph 62 % 0.00 in 0 W/m2
22:00 74.1 °F 60.3 °F 30.06 in Calm   1.0 mph 62 % 0.00 in 0 W/m2
22:05 73.9 °F 60.5 °F 30.06 in Calm   2.0 mph 63 % 0.00 in 0 W/m2
22:10 73.6 °F 60.6 °F 30.06 in Calm   2.0 mph 64 % 0.00 in 0 W/m2
22:15 73.2 °F 60.3 °F 30.06 in Calm   1.0 mph 64 % 0.00 in 0 W/m2
22:20 73.0 °F 61.0 °F 30.06 in Calm   2.0 mph 66 % 0.00 in 0 W/m2
22:25 72.3 °F 61.2 °F 30.06 in Calm   2.0 mph 68 % 0.00 in 0 W/m2
22:30 71.8 °F 61.5 °F 30.06 in Calm   2.0 mph 70 % 0.00 in 0 W/m2
22:35 71.2 °F 61.4 °F 30.06 in Calm   2.0 mph 71 % 0.00 in 0 W/m2
22:41 70.9 °F 61.0 °F 30.06 in Calm     71 % 0.00 in 0 W/m2
22:45 70.5 °F 61.1 °F 30.06 in Calm   1.0 mph 72 % 0.00 in 0 W/m2
22:50 70.3 °F 61.3 °F 30.06 in Calm   1.0 mph 73 % 0.00 in 0 W/m2
22:56 70.2 °F 61.1 °F 30.06 in Calm   1.0 mph 73 % 0.00 in 0 W/m2
23:01 70.0 °F 60.9 °F 30.06 in NW 1.0 mph 2.0 mph 73 % 0.00 in 0 W/m2
23:06 69.8 °F 61.1 °F 30.06 in NW 1.0 mph 2.0 mph 74 % 0.00 in 0 W/m2
23:11 69.6 °F 61.0 °F 30.06 in Calm   2.0 mph 74 % 0.00 in 0 W/m2
23:16 69.4 °F 60.8 °F 30.06 in Calm   1.0 mph 74 % 0.00 in 0 W/m2
23:21 69.3 °F 61.0 °F 30.06 in Calm   2.0 mph 75 % 0.00 in 0 W/m2
23:26 69.1 °F 61.2 °F 30.06 in NW 1.0 mph 2.0 mph 76 % 0.00 in 0 W/m2
23:31 68.9 °F 61.0 °F 30.07 in NW 1.0 mph 4.0 mph 76 % 0.00 in 0 W/m2
23:36 68.7 °F 60.5 °F 30.06 in NW 1.0 mph 5.0 mph 75 % 0.00 in 0 W/m2
23:41 68.7 °F 60.5 °F 30.06 in NW 2.0 mph 5.0 mph 75 % 0.00 in 0 W/m2
23:44 68.9 °F 60.3 °F 30.06 in NW 2.0 mph 4.0 mph 74 % 0.00 in 0 W/m2
23:49 69.3 °F 60.6 °F 30.07 in NW 2.0 mph 5.0 mph 74 % 0.00 in 0 W/m2
23:54 69.4 °F 60.4 °F 30.06 in NW 2.0 mph 5.0 mph 73 % 0.00 in 0 W/m2
23:59 69.6 °F 60.6 °F 30.06 in NW 2.0 mph 6.0 mph 73 % 0.00 in 0 W/m2
Delerius-Weather
Compliments of Weather Underground - 2.25 mb

Data updates at regular intervals.